Time;durP1;ratioP1;P1;durP2;ratioP2;P2;SDS_P1;SDS_P2;PMS_P1;PMS_P2;Temp;Humidity;BMP_temperature;BMP_pressure;BME280_temperature;BME280_humidity;BME280_pressure;Samples;Min_cycle;Max_cycle;Signal;HPM_P1;HPM_P2
2022/11/12 00:00:52;;;;;;;;;;;;;;;20.83;41.22;98080.44;5139370;27;19934;-29
2022/11/12 00:03:17;;;;;;;;;;;;;;;20.89;41.03;98086.91;5158616;27;19911;-30
2022/11/12 00:05:44;;;;;;;;;;;;;;;20.81;41.19;98085.63;5158412;27;19997;-30
2022/11/12 00:08:09;;;;;;;;;;;;;;;20.84;41.04;98083.97;5158671;27;19930;-30
2022/11/12 00:10:34;;;;;;;;;;;;;;;20.87;40.86;98075.56;5158112;27;20413;-30
2022/11/12 00:13:00;;;;;;;;;;;;;;;20.87;40.69;98078.31;5158388;27;19907;-29
2022/11/12 00:15:26;;;;;;;;;;;;;;;20.83;40.78;98069.41;5158367;27;19914;-30
2022/11/12 00:17:51;;;;;;;;;;;;;;;20.85;40.95;98064.19;5158327;27;19907;-30
2022/11/12 00:20:17;;;;;;;;;;;;;;;20.86;40.83;98062.22;5157968;27;20333;-30
2022/11/12 00:22:42;;;;;;;;;;;;;;;20.83;40.61;98058.38;5157468;27;19915;-30
2022/11/12 00:25:08;;;;;;;;;;;;;;;20.88;40.76;98054.25;5139548;27;19907;-30
2022/11/12 00:27:33;;;;;;;;;;;;;;;20.82;40.76;98056.84;5158412;27;19967;-30
2022/11/12 00:29:59;;;;;;;;;;;;;;;20.84;40.57;98057.16;5158069;27;19911;-30
2022/11/12 00:32:24;;;;;;;;;;;;;;;20.80;40.92;98062.81;5158017;27;19917;-30
2022/11/12 00:34:50;;;;;;;;;;;;;;;20.81;40.66;98049.78;5157982;27;19960;-30
2022/11/12 00:37:15;;;;;;;;;;;;;;;20.85;40.48;98050.41;5157922;27;19914;-30
2022/11/12 00:39:41;;;;;;;;;;;;;;;20.81;40.57;98049.78;5157974;27;20006;-30
2022/11/12 00:42:06;;;;;;;;;;;;;;;20.76;40.52;98042.91;5157793;27;19914;-30
2022/11/12 00:44:31;;;;;;;;;;;;;;;20.75;40.76;98037.84;5157681;27;19951;-29
2022/11/12 00:46:57;;;;;;;;;;;;;;;20.72;40.85;98045.00;5157815;27;19961;-30
2022/11/12 00:49:22;;;;;;;;;;;;;;;20.81;40.39;98044.25;5157342;27;20381;-29
2022/11/12 00:51:48;;;;;;;;;;;;;;;20.76;40.64;98042.13;5157616;27;19994;-30
2022/11/12 00:54:13;;;;;;;;;;;;;;;20.80;40.60;98042.72;5157817;27;20434;-30
2022/11/12 00:56:39;;;;;;;;;;;;;;;20.80;40.42;98042.72;5157967;27;19959;-30
2022/11/12 00:59:04;;;;;;;;;;;;;;;20.75;40.66;98037.84;5157486;27;19986;-30
2022/11/12 01:01:30;;;;;;;;;;;;;;;20.75;40.38;98035.84;5157526;27;19910;-30
2022/11/12 01:03:56;;;;;;;;;;;;;;;20.75;40.45;98046.09;5157530;27;19907;-30
2022/11/12 01:06:22;;;;;;;;;;;;;;;20.79;40.69;98041.97;5157358;27;19907;-30
2022/11/12 01:08:48;;;;;;;;;;;;;;;20.75;40.43;98041.34;5157363;27;19918;-30
2022/11/12 01:11:18;;;;;;;;;;;;;;;20.74;40.52;98036.28;5157367;27;20285;-30
2022/11/12 01:14:11;;;;;;;;;;;;;;;20.76;40.47;98037.38;5157307;27;19975;-30
2022/11/12 01:16:38;;;;;;;;;;;;;;;20.77;40.40;98027.13;5157619;27;20383;-30
2022/11/12 01:19:04;;;;;;;;;;;;;;;20.75;40.28;98029.56;5157429;27;19942;-30
2022/11/12 01:21:31;;;;;;;;;;;;;;;20.73;40.40;98032.00;5155137;27;19959;-31
2022/11/12 01:23:57;;;;;;;;;;;;;;;20.77;40.40;98035.38;5152897;27;19919;-30
2022/11/12 01:26:23;;;;;;;;;;;;;;;20.69;40.67;98025.84;5157021;27;20347;-30
2022/11/12 01:28:49;;;;;;;;;;;;;;;20.69;40.41;98023.09;5156752;27;20009;-30
2022/11/12 01:31:21;;;;;;;;;;;;;;;20.72;40.42;98031.22;5156870;27;19911;-29
2022/11/12 01:33:48;;;;;;;;;;;;;;;20.69;40.72;98025.84;5156789;27;19911;-32
2022/11/12 01:36:14;;;;;;;;;;;;;;;20.67;40.61;98025.53;5156814;27;19914;-32
2022/11/12 01:38:40;;;;;;;;;;;;;;;20.61;40.45;98011.59;5156690;27;19951;-29
2022/11/12 01:41:06;;;;;;;;;;;;;;;20.66;40.43;98015.72;5156517;27;19907;-30
2022/11/12 01:43:33;;;;;;;;;;;;;;;20.65;40.45;98008.69;5156687;27;19906;-30
2022/11/12 01:46:01;;;;;;;;;;;;;;;20.59;40.70;98016.03;5156632;27;19951;-29
2022/11/12 01:48:52;;;;;;;;;;;;;;;20.64;40.38;98013.44;5156515;27;19968;-30
2022/11/12 01:51:19;;;;;;;;;;;;;;;20.75;40.26;98010.25;5151260;27;19914;-29
2022/11/12 01:53:47;;;;;;;;;;;;;;;20.69;40.40;98006.56;5156438;27;20278;-30
2022/11/12 01:56:12;;;;;;;;;;;;;;;20.69;40.38;98003.78;5155795;27;20006;-29
2022/11/12 01:58:39;;;;;;;;;;;;;;;20.65;40.54;97997.66;5134635;27;19942;-30
2022/11/12 02:01:04;;;;;;;;;;;;;;;20.69;40.27;98001.03;5156330;27;19907;-30
2022/11/12 02:03:31;;;;;;;;;;;;;;;20.62;40.44;97993.06;5156342;27;20326;-29
2022/11/12 02:06:02;;;;;;;;;;;;;;;20.57;40.42;97990.91;5156130;27;19928;-30
2022/11/12 02:08:29;;;;;;;;;;;;;;;20.60;40.29;97984.47;5156100;27;20002;-30
2022/11/12 02:10:54;;;;;;;;;;;;;;;20.57;40.38;97977.88;5156270;27;20005;-30
2022/11/12 02:16:04;;;;;;;;;;;;;;;20.64;39.98;97979.59;5156106;27;19946;-30
2022/11/12 02:18:29;;;;;;;;;;;;;;;20.62;40.06;97977.31;5156194;27;19911;-29
2022/11/12 02:20:57;;;;;;;;;;;;;;;20.56;40.02;97975.59;5156064;27;20017;-30
2022/11/12 02:23:22;;;;;;;;;;;;;;;20.58;39.99;97968.41;5156162;27;19976;-29
2022/11/12 02:25:47;;;;;;;;;;;;;;;20.59;39.97;97971.91;5155965;27;20370;-30
2022/11/12 02:28:13;;;;;;;;;;;;;;;20.58;40.12;97971.16;5156060;27;19907;-30
2022/11/12 02:30:43;;;;;;;;;;;;;;;20.58;39.91;97964.88;5137069;27;19907;-30
2022/11/12 02:33:08;;;;;;;;;;;;;;;20.55;40.02;97965.78;5155932;27;19911;-30
2022/11/12 02:35:33;;;;;;;;;;;;;;;20.53;39.97;97968.22;5156015;27;19911;-30
2022/11/12 02:37:59;;;;;;;;;;;;;;;20.53;40.00;97976.50;5156023;27;19956;-30
2022/11/12 02:40:24;;;;;;;;;;;;;;;20.54;39.76;97975.28;5156156;27;19906;-30
2022/11/12 02:42:50;;;;;;;;;;;;;;;20.52;40.02;97967.47;5155880;27;19907;-30
2022/11/12 02:45:16;;;;;;;;;;;;;;;20.48;39.88;97971.59;5136575;27;19914;-31
2022/11/12 02:47:41;;;;;;;;;;;;;;;20.49;39.88;97962.88;5155587;27;19911;-29
2022/11/12 02:50:07;;;;;;;;;;;;;;;20.42;40.18;97966.66;5155467;27;20431;-30
2022/11/12 02:52:33;;;;;;;;;;;;;;;20.42;39.98;97971.41;5155540;27;19918;-30
2022/11/12 02:54:59;;;;;;;;;;;;;;;20.50;39.90;97977.41;5155562;27;20362;-29
2022/11/12 02:57:24;;;;;;;;;;;;;;;20.50;40.09;97975.44;5155834;27;19918;-30
2022/11/12 02:59:50;;;;;;;;;;;;;;;20.49;39.57;97973.13;5155654;27;20384;-30
2022/11/12 03:02:15;;;;;;;;;;;;;;;20.54;39.69;97972.50;5155453;27;20407;-30
2022/11/12 03:04:40;;;;;;;;;;;;;;;20.44;39.69;97972.50;5155337;27;19914;-30
2022/11/12 03:07:06;;;;;;;;;;;;;;;20.34;39.87;97964.63;5155714;27;20422;-29
2022/11/12 03:09:31;;;;;;;;;;;;;;;20.44;39.75;97953.19;5159526;27;20485;-30
2022/11/12 03:11:56;;;;;;;;;;;;;;;20.49;39.37;97954.59;5159635;27;19918;-30
2022/11/12 03:14:22;;;;;;;;;;;;;;;20.46;39.13;97941.72;5159427;27;19911;-30
2022/11/12 03:16:48;;;;;;;;;;;;;;;20.47;39.27;97943.25;5159581;27;19930;-30
2022/11/12 03:19:13;;;;;;;;;;;;;;;20.44;39.09;97939.41;5159438;27;20374;-29
2022/11/12 03:21:38;;;;;;;;;;;;;;;20.37;39.90;97945.22;5159389;27;19960;-30
2022/11/12 03:24:04;;;;;;;;;;;;;;;20.42;38.83;97933.59;5159177;27;19915;-30
2022/11/12 03:26:29;;;;;;;;;;;;;;;20.35;39.44;97931.16;5159290;27;19915;-30
2022/11/12 03:28:54;;;;;;;;;;;;;;;20.41;39.27;97928.53;5159496;27;20415;-29
2022/11/12 03:31:20;;;;;;;;;;;;;;;20.42;38.95;97921.81;5159165;27;19911;-30
2022/11/12 03:33:45;;;;;;;;;;;;;;;20.43;39.00;97921.34;5159203;27;19930;-29
2022/11/12 03:36:11;;;;;;;;;;;;;;;20.44;39.27;97914.63;5159059;27;19914;-30
2022/11/12 03:38:36;;;;;;;;;;;;;;;20.46;38.81;97907.88;5159057;27;19907;-30
2022/11/12 03:41:02;;;;;;;;;;;;;;;20.44;38.93;97911.88;5158962;27;19907;-29
2022/11/12 03:43:27;;;;;;;;;;;;;;;20.42;39.08;97913.53;5158995;27;19998;-30
2022/11/12 03:45:53;;;;;;;;;;;;;;;20.46;39.08;97913.41;5158769;27;19946;-31
2022/11/12 03:48:18;;;;;;;;;;;;;;;20.35;39.34;97914.59;5159191;27;19907;-29
2022/11/12 03:50:43;;;;;;;;;;;;;;;20.38;39.23;97919.22;5159010;27;19918;-30
2022/11/12 03:53:09;;;;;;;;;;;;;;;20.47;38.64;97909.44;5158950;27;20361;-29
2022/11/12 03:55:34;;;;;;;;;;;;;;;20.43;38.52;97926.09;5158997;27;19914;-30
2022/11/12 03:57:59;;;;;;;;;;;;;;;20.44;38.74;97911.88;5140143;27;19915;-30
2022/11/12 04:00:26;;;;;;;;;;;;;;;20.42;38.43;97919.81;5158644;27;19907;-31
2022/11/12 04:02:52;;;;;;;;;;;;;;;20.44;38.54;97908.34;5158540;27;19907;-29
2022/11/12 04:11:02;;;;;;;;;;;;;;;20.40;38.72;97905.72;5102888;27;19918;-30
2022/11/12 04:13:28;;;;;;;;;;;;;;;20.39;38.64;97909.72;5138007;27;19960;-30
2022/11/12 04:21:49;;;;;;;;;;;;;;;20.39;38.46;97915.25;5137950;27;20357;-30
2022/11/12 04:27:32;;;;;;;;;;;;;;;20.33;38.50;97917.03;5074228;28;20401;-30
2022/11/12 04:30:17;;;;;;;;;;;;;;;20.33;38.52;97899.72;5073996;28;19908;-30
2022/11/12 04:32:47;;;;;;;;;;;;;;;20.31;38.87;97904.91;5073979;28;19913;-30
2022/11/12 04:35:12;;;;;;;;;;;;;;;20.38;37.99;97899.16;5074412;28;19909;-29
2022/11/12 04:37:44;;;;;;;;;;;;;;;20.33;38.49;97894.97;5073811;28;19954;-30
2022/11/12 04:45:50;;;;;;;;;;;;;;;20.32;38.40;97876.91;5073856;28;20014;-31
2022/11/12 04:48:15;;;;;;;;;;;;;;;20.28;38.14;97870.78;5073993;28;19915;-30
2022/11/12 04:50:42;;;;;;;;;;;;;;;20.31;37.96;97863.59;5073732;28;20002;-30
2022/11/12 04:53:07;;;;;;;;;;;;;;;20.33;37.94;97872.94;5073720;28;19916;-30
2022/11/12 04:55:32;;;;;;;;;;;;;;;20.30;38.23;97873.84;5073194;28;19954;-29
2022/11/12 04:57:58;;;;;;;;;;;;;;;20.38;38.00;97880.66;5101022;27;19915;-30
2022/11/12 05:00:23;;;;;;;;;;;;;;;20.38;37.71;97880.66;5136938;27;19911;-30
2022/11/12 05:02:49;;;;;;;;;;;;;;;20.44;37.61;97873.28;5137040;27;20324;-29
2022/11/12 05:05:14;;;;;;;;;;;;;;;20.31;37.84;97878.13;5136789;27;20327;-30
2022/11/12 05:07:40;;;;;;;;;;;;;;;20.34;37.88;97860.69;5136589;27;19908;-29
2022/11/12 05:10:08;;;;;;;;;;;;;;;20.29;37.75;97872.31;5136628;27;19914;-30
2022/11/12 05:12:33;;;;;;;;;;;;;;;20.32;37.85;97870.63;5136443;27;19915;-30
2022/11/12 05:14:59;;;;;;;;;;;;;;;20.32;37.39;97865.13;5136661;27;19930;-29
2022/11/12 05:17:24;;;;;;;;;;;;;;;20.29;37.67;97869.56;5136299;27;20302;-31
2022/11/12 05:19:49;;;;;;;;;;;;;;;20.28;37.91;97859.75;5136636;27;19907;-30
2022/11/12 05:22:15;;;;;;;;;;;;;;;20.27;37.63;97868.50;5117720;27;19915;-30
2022/11/12 05:24:41;;;;;;;;;;;;;;;20.31;37.57;97864.34;5136189;27;20380;-32
2022/11/12 05:27:10;;;;;;;;;;;;;;;20.32;37.67;97870.63;5136242;27;20287;-30
2022/11/12 05:29:36;;;;;;;;;;;;;;;20.29;37.69;97861.28;5136118;27;20363;-30
2022/11/12 05:32:02;;;;;;;;;;;;;;;20.29;37.81;97866.03;5135377;27;19918;-30
2022/11/12 05:34:27;;;;;;;;;;;;;;;20.34;37.50;97857.94;5136116;27;20347;-30
2022/11/12 05:36:53;;;;;;;;;;;;;;;20.34;37.36;97860.69;5117764;27;20362;-30
2022/11/12 05:39:18;;;;;;;;;;;;;;;20.33;37.47;97859.16;5135937;27;19915;-31
2022/11/12 05:41:43;;;;;;;;;;;;;;;20.32;37.63;97849.34;5136099;27;19963;-29
2022/11/12 05:44:09;;;;;;;;;;;;;;;20.29;37.65;97844.75;5135765;27;19907;-30
2022/11/12 05:46:34;;;;;;;;;;;;;;;20.34;37.44;97843.41;5135962;27;19995;-30
2022/11/12 05:48:59;;;;;;;;;;;;;;;20.25;37.64;97846.16;5135700;27;19995;-29
2022/11/12 05:51:25;;;;;;;;;;;;;;;20.33;37.61;97839.09;5135496;27;19990;-29
2022/11/12 05:53:50;;;;;;;;;;;;;;;20.36;37.58;97844.50;5142365;27;20281;-30
2022/11/12 05:56:15;;;;;;;;;;;;;;;20.30;37.59;97842.78;5135811;27;19915;-30
2022/11/12 05:58:41;;;;;;;;;;;;;;;20.20;37.97;97839.25;5145978;27;19908;-30
2022/11/12 06:01:06;;;;;;;;;;;;;;;20.23;37.82;97840.31;5133918;27;20391;-29
2022/11/12 06:03:31;;;;;;;;;;;;;;;20.22;37.63;97839.56;5133414;27;20638;-29
2022/11/12 06:05:57;;;;;;;;;;;;;;;20.19;37.67;97837.69;5133517;27;19922;-30
2022/11/12 06:08:22;;;;;;;;;;;;;;;20.18;37.87;97832.66;5133417;27;19919;-30
2022/11/12 06:10:48;;;;;;;;;;;;;;;20.13;38.08;97847.81;5143263;27;19918;-30
2022/11/12 06:13:13;;;;;;;;;;;;;;;20.15;37.72;97839.84;5153970;27;19915;-30
2022/11/12 06:15:39;;;;;;;;;;;;;;;20.26;37.81;97848.44;5153872;27;19911;-29
2022/11/12 06:18:04;;;;;;;;;;;;;;;20.30;37.62;97851.03;5153809;27;20596;-29
2022/11/12 06:20:29;;;;;;;;;;;;;;;20.29;37.23;97855.00;5154235;27;19918;-31
2022/11/12 06:22:55;;;;;;;;;;;;;;;20.22;37.69;97856.09;5153124;27;20314;-29
2022/11/12 06:25:20;;;;;;;;;;;;;;;20.27;37.65;97849.97;5153744;27;19915;-29
2022/11/12 06:27:46;;;;;;;;;;;;;;;20.25;37.53;97849.66;5153627;27;19914;-29
2022/11/12 06:30:11;;;;;;;;;;;;;;;20.20;37.82;97842.00;5153605;27;20479;-30
2022/11/12 06:32:36;;;;;;;;;;;;;;;20.23;37.41;97841.09;5153791;27;19919;-29
2022/11/12 06:35:02;;;;;;;;;;;;;;;20.24;37.68;97841.84;5153910;27;20002;-29
2022/11/12 06:37:27;;;;;;;;;;;;;;;20.29;37.65;97847.50;5153658;27;19950;-29
2022/11/12 06:39:52;;;;;;;;;;;;;;;20.20;37.70;97852.25;5144607;27;19915;-29
2022/11/12 06:42:18;;;;;;;;;;;;;;;20.30;37.39;97857.31;5134649;27;19907;-31
2022/11/12 06:44:43;;;;;;;;;;;;;;;20.24;37.85;97853.66;5134971;27;20382;-30
2022/11/12 06:47:09;;;;;;;;;;;;;;;20.24;37.58;97850.13;5135024;27;19908;-29
2022/11/12 06:49:34;;;;;;;;;;;;;;;20.20;37.67;97853.00;5152682;27;19910;-29
2022/11/12 06:52:00;;;;;;;;;;;;;;;20.17;37.60;97851.16;5155190;27;19993;-30
2022/11/12 06:54:25;;;;;;;;;;;;;;;20.29;37.17;97850.25;5155729;27;19930;-29
2022/11/12 06:56:51;;;;;;;;;;;;;;;20.13;37.79;97847.81;5155228;27;20335;-29
2022/11/12 06:59:16;;;;;;;;;;;;;;;20.22;37.47;97863.56;5155506;27;20354;-29
2022/11/12 07:01:41;;;;;;;;;;;;;;;20.28;37.20;97851.47;5155451;27;19907;-32
2022/11/12 07:04:07;;;;;;;;;;;;;;;20.27;37.33;97852.72;5155590;27;19911;-31
2022/11/12 07:06:32;;;;;;;;;;;;;;;20.26;37.42;97853.97;5155452;27;19907;-30
2022/11/12 07:08:57;;;;;;;;;;;;;;;20.29;37.07;97839.25;5155191;27;20299;-31
2022/11/12 07:11:23;;;;;;;;;;;;;;;20.26;37.55;97840.19;5136815;27;19911;-32
2022/11/12 07:13:48;;;;;;;;;;;;;;;20.26;37.50;97833.91;5155358;27;19908;-31
2022/11/12 07:16:17;;;;;;;;;;;;;;;20.23;37.38;97835.56;5155385;27;20047;-30
2022/11/12 07:18:46;;;;;;;;;;;;;;;20.22;37.12;97827.78;5155104;27;20006;-30
2022/11/12 07:21:14;;;;;;;;;;;;;;;20.16;37.21;97838.59;5155176;27;19929;-30
2022/11/12 07:23:39;;;;;;;;;;;;;;;20.21;37.58;97831.75;5155261;27;19911;-29
2022/11/12 07:26:05;;;;;;;;;;;;;;;20.29;37.22;97832.97;5155230;27;20286;-29
2022/11/12 07:28:30;;;;;;;;;;;;;;;20.26;37.32;97836.66;5155160;27;20389;-30
2022/11/12 07:31:00;;;;;;;;;;;;;;;20.22;37.68;97838.78;5155007;27;19907;-29
2022/11/12 07:33:26;;;;;;;;;;;;;;;20.24;37.14;97831.59;5155134;27;19993;-29
2022/11/12 07:35:58;;;;;;;;;;;;;;;20.15;37.26;97848.13;5152316;27;20391;-29
2022/11/12 07:38:24;;;;;;;;;;;;;;;20.18;37.43;97855.44;5153265;27;19914;-29
2022/11/12 07:40:49;;;;;;;;;;;;;;;20.14;37.69;97852.09;5153268;27;19919;-29
2022/11/12 07:43:15;;;;;;;;;;;;;;;20.20;37.41;97855.75;5153320;27;20282;-29
2022/11/12 07:45:40;;;;;;;;;;;;;;;20.21;37.34;97848.28;5151151;27;20420;-29
2022/11/12 07:48:06;;;;;;;;;;;;;;;20.29;36.93;97850.25;5152854;27;19958;-29
2022/11/12 07:50:31;;;;;;;;;;;;;;;20.25;37.23;97844.16;5153125;27;19911;-29
2022/11/12 07:52:59;;;;;;;;;;;;;;;20.24;37.13;97841.84;5153125;27;19910;-29
2022/11/12 07:55:25;;;;;;;;;;;;;;;20.23;37.08;97851.34;5155520;27;20335;-30
2022/11/12 07:57:50;;;;;;;;;;;;;;;20.14;37.28;97852.09;5156845;27;19959;-29
2022/11/12 08:00:15;;;;;;;;;;;;;;;20.19;37.36;97854.22;5153321;27;19932;-29
2022/11/12 08:02:41;;;;;;;;;;;;;;;20.22;37.47;97858.06;5157029;27;19956;-29
2022/11/12 08:05:06;;;;;;;;;;;;;;;20.24;37.19;97850.13;5156654;27;19920;-32
2022/11/12 08:07:31;;;;;;;;;;;;;;;20.23;37.57;97841.09;5156491;27;19955;-29
2022/11/12 08:09:57;;;;;;;;;;;;;;;20.18;37.43;97844.44;5156570;27;19915;-29
2022/11/12 08:12:23;;;;;;;;;;;;;;;20.20;37.28;97843.97;5156378;27;19918;-29
2022/11/12 08:14:48;;;;;;;;;;;;;;;20.19;37.48;97834.94;5156522;27;19907;-29
2022/11/12 08:17:13;;;;;;;;;;;;;;;20.24;37.39;97844.59;5156667;27;19915;-29
2022/11/12 08:19:39;;;;;;;;;;;;;;;20.22;37.13;97847.06;5156434;27;19914;-29
2022/11/12 08:22:04;;;;;;;;;;;;;;;20.18;37.30;97849.94;5156190;27;19957;-30
2022/11/12 08:24:29;;;;;;;;;;;;;;;20.24;37.02;97841.84;5156150;27;19915;-29
2022/11/12 08:26:55;;;;;;;;;;;;;;;20.16;37.65;97846.88;5152485;27;19996;-29
2022/11/12 08:29:22;;;;;;;;;;;;;;;20.20;37.47;97850.25;5137303;27;19907;-31
2022/11/12 08:31:47;;;;;;;;;;;;;;;20.26;37.32;97833.91;5119217;27;19911;-29
2022/11/12 08:34:12;;;;;;;;;;;;;;;20.21;37.28;97829.00;5137256;27;19907;-29
2022/11/12 08:36:39;;;;;;;;;;;;;;;20.24;37.39;97837.13;5137331;27;19911;-29
2022/11/12 08:39:04;;;;;;;;;;;;;;;20.22;37.35;97838.78;5137393;27;19919;-29
2022/11/12 08:41:30;;;;;;;;;;;;;;;20.28;37.34;97840.47;5137108;27;19911;-29
2022/11/12 08:43:56;;;;;;;;;;;;;;;20.29;37.38;97839.25;5137257;27;19907;-29
2022/11/12 08:46:22;;;;;;;;;;;;;;;20.21;37.45;97849.03;5137012;27;19907;-29
2022/11/12 08:48:47;;;;;;;;;;;;;;;20.23;37.24;97846.59;5137048;27;20332;-29
2022/11/12 08:51:12;;;;;;;;;;;;;;;20.15;37.76;97850.88;5137252;27;19934;-29
2022/11/12 08:53:38;;;;;;;;;;;;;;;20.21;37.37;97838.03;5147578;27;20362;-30
2022/11/12 08:56:03;;;;;;;;;;;;;;;20.22;37.66;97853.31;5155744;27;20005;-32
2022/11/12 08:58:28;;;;;;;;;;;;;;;20.20;37.34;97847.50;5155764;27;19982;-29
2022/11/12 09:00:54;;;;;;;;;;;;;;;20.13;37.59;97860.81;5153913;27;19922;-29
2022/11/12 09:03:21;;;;;;;;;;;;;;;20.22;37.77;97864.34;5155646;27;19903;-29
2022/11/12 09:05:47;;;;;;;;;;;;;;;20.15;37.78;97872.91;5136420;27;19957;-29
2022/11/12 09:08:14;;;;;;;;;;;;;;;20.26;37.39;97877.97;5155416;27;19938;-30
2022/11/12 09:10:39;;;;;;;;;;;;;;;20.19;37.32;97879.03;5155231;27;19917;-29
2022/11/12 09:13:05;;;;;;;;;;;;;;;20.25;37.51;97876.44;5153612;27;19998;-29
2022/11/12 09:15:31;;;;;;;;;;;;;;;20.24;37.58;97872.94;5155269;27;20354;-32
2022/11/12 09:17:57;;;;;;;;;;;;;;;20.24;37.53;97881.19;5154753;27;19911;-29
2022/11/12 09:20:23;;;;;;;;;;;;;;;20.20;37.80;97883.31;5155287;27;19918;-30
2022/11/12 09:22:48;;;;;;;;;;;;;;;20.14;37.64;97870.59;5154936;27;20063;-29
2022/11/12 09:25:14;;;;;;;;;;;;;;;20.19;37.55;97879.03;5155248;27;19923;-30
2022/11/12 09:27:39;;;;;;;;;;;;;;;20.23;37.61;97874.16;5155108;27;19993;-29
2022/11/12 09:30:05;;;;;;;;;;;;;;;20.27;37.33;97874.78;5154829;27;20009;-30
2022/11/12 09:32:30;;;;;;;;;;;;;;;20.25;37.81;97866.19;5154954;27;19942;-30
2022/11/12 09:34:56;;;;;;;;;;;;;;;20.25;37.50;97868.94;5155049;27;20448;-29
2022/11/12 09:37:21;;;;;;;;;;;;;;;20.09;38.14;97861.72;5154733;27;19920;-29
2022/11/12 09:39:47;;;;;;;;;;;;;;;20.10;38.07;97854.22;5154766;27;19917;-29
2022/11/12 09:42:14;;;;;;;;;;;;;;;20.18;37.69;97849.94;5154397;27;19917;-29
2022/11/12 09:44:41;;;;;;;;;;;;;;;20.22;37.55;97838.78;5154796;27;19907;-30
2022/11/12 09:47:06;;;;;;;;;;;;;;;20.16;37.93;97838.59;5136208;27;20002;-30
2022/11/12 09:49:49;;;;;;;;;;;;;;;20.18;37.83;97822.41;5154695;27;20009;-29
2022/11/12 09:52:17;;;;;;;;;;;;;;;20.15;38.07;97826.09;5154383;27;20405;-29
2022/11/12 09:54:42;;;;;;;;;;;;;;;20.22;37.95;97822.25;5154593;27;20363;-30
2022/11/12 09:57:10;;;;;;;;;;;;;;;20.20;37.72;97825.47;5154381;27;19921;-29
2022/11/12 09:59:37;;;;;;;;;;;;;;;20.15;38.07;97825.31;5153570;27;19971;-30
2022/11/12 10:02:41;;;;;;;;;;;;;;;20.17;37.93;97815.34;5152036;27;19926;-29
2022/11/12 10:05:25;;;;;;;;;;;;;;;20.14;37.76;97821.78;5069586;28;19927;-29
2022/11/12 10:08:02;;;;;;;;;;;;;;;20.18;37.95;97810.63;5070002;28;20381;-29
2022/11/12 10:10:27;;;;;;;;;;;;;;;20.16;37.93;97808.31;5069906;28;19912;-29
2022/11/12 10:12:55;;;;;;;;;;;;;;;20.06;38.26;97804.78;5068609;28;20337;-29
2022/11/12 10:18:30;;;;;;;;;;;;;;;19.97;38.25;97817.78;5069532;28;19947;-29
2022/11/12 10:20:56;;;;;;;;;;;;;;;19.91;38.70;97805.81;5069851;28;19909;-30
2022/11/12 10:23:24;;;;;;;;;;;;;;;20.12;37.95;97806.94;5069596;28;20264;-30
2022/11/12 10:25:52;;;;;;;;;;;;;;;19.93;38.34;97811.63;5069653;28;20362;-31
2022/11/12 10:28:23;;;;;;;;;;;;;;;20.11;37.82;97813.66;5069500;28;19951;-29
2022/11/12 10:30:48;;;;;;;;;;;;;;;19.95;37.91;97803.69;5069734;28;19912;-29
2022/11/12 10:33:14;;;;;;;;;;;;;;;20.02;38.11;97806.94;5069197;28;19916;-29
2022/11/12 10:35:39;;;;;;;;;;;;;;;20.05;38.04;97816.25;5103289;27;19911;-29
2022/11/12 10:38:06;;;;;;;;;;;;;;;20.12;37.57;97812.44;5153912;27;19911;-30
2022/11/12 10:40:31;;;;;;;;;;;;;;;19.98;38.08;97809.06;5153582;27;19911;-30
2022/11/12 10:43:00;;;;;;;;;;;;;;;19.92;38.06;97807.34;5153606;27;20397;-29
2022/11/12 10:45:25;;;;;;;;;;;;;;;20.08;37.79;97805.09;5153791;27;19906;-30
2022/11/12 10:47:50;;;;;;;;;;;;;;;19.97;38.09;97791.00;5153764;27;20003;-29
2022/11/12 10:50:30;;;;;;;;;;;;;;;20.05;38.04;97806.00;5153708;27;19918;-30
2022/11/12 10:52:57;;;;;;;;;;;;;;;19.92;37.98;97799.09;5153076;27;19918;-29
2022/11/12 10:55:34;;;;;;;;;;;;;;;20.08;37.87;97802.34;5153320;27;20007;-29
2022/11/12 10:58:08;;;;;;;;;;;;;;;20.05;37.70;97800.50;5134871;27;19911;-29
2022/11/12 11:00:33;;;;;;;;;;;;;;;20.07;37.75;97802.78;5153511;27;19910;-29
2022/11/12 11:03:00;;;;;;;;;;;;;;;20.00;37.95;97797.59;5153604;27;19914;-29
2022/11/12 11:05:36;;;;;;;;;;;;;;;20.07;37.82;97789.03;5153453;27;19911;-29
2022/11/12 11:08:02;;;;;;;;;;;;;;;19.97;38.08;97790.22;5153516;27;19907;-29
2022/11/12 11:10:34;;;;;;;;;;;;;;;20.05;37.77;97780.44;5153269;27;19911;-29
2022/11/12 11:13:12;;;;;;;;;;;;;;;19.97;38.08;97779.22;5132939;27;20255;-31
2022/11/12 11:15:38;;;;;;;;;;;;;;;19.92;38.03;97771.56;5153124;27;19918;-30
2022/11/12 11:18:04;;;;;;;;;;;;;;;19.91;37.60;97767.25;5153052;27;19964;-29
2022/11/12 11:20:43;;;;;;;;;;;;;;;19.91;37.96;97759.78;5152351;27;20377;-32
2022/11/12 11:23:17;;;;;;;;;;;;;;;19.79;38.03;97754.38;5144149;27;19969;-31
2022/11/12 11:25:45;;;;;;;;;;;;;;;19.93;37.94;97759.31;5132626;28;19919;-31
2022/11/12 11:28:21;;;;;;;;;;;;;;;19.86;38.08;97760.38;5147284;27;19911;-32
2022/11/12 11:31:02;;;;;;;;;;;;;;;19.94;37.96;97763.59;5155480;27;19975;-31
2022/11/12 11:34:02;;;;;;;;;;;;;;;20.07;37.70;97761.47;5157289;27;19915;-31
2022/11/12 11:36:38;;;;;;;;;;;;;;;20.01;37.55;97758.59;5052834;28;19912;-31
2022/11/12 11:39:13;;;;;;;;;;;;;;;19.92;38.14;97744.03;5048878;28;19919;-32
2022/11/12 11:41:44;;;;;;;;;;;;;;;20.05;37.71;97741.91;5032517;28;20444;-30
2022/11/12 11:44:12;;;;;;;;;;;;;;;20.18;37.44;97739.75;5035352;28;19917;-33
2022/11/12 11:46:41;;;;;;;;;;;;;;;20.07;37.45;97722.94;5047465;28;20443;-32
2022/11/12 11:49:24;;;;;;;;;;;;;;;20.05;37.68;97720.63;5052246;28;19994;-31
2022/11/12 11:51:56;;;;;;;;;;;;;;;20.05;37.77;97711.59;5047894;28;20372;-31
2022/11/12 11:54:24;;;;;;;;;;;;;;;20.02;37.69;97710.56;5054874;28;19909;-31
2022/11/12 11:56:53;;;;;;;;;;;;;;;19.99;37.82;97719.72;5037991;28;20446;-32
2022/11/12 11:59:23;;;;;;;;;;;;;;;19.98;37.99;97709.16;5053312;28;20368;-31
2022/11/12 12:01:48;;;;;;;;;;;;;;;19.92;37.96;97708.22;5035449;28;20401;-31
2022/11/12 12:04:14;;;;;;;;;;;;;;;19.98;37.98;97700.91;5034467;28;19913;-31
2022/11/12 12:06:59;;;;;;;;;;;;;;;19.87;38.05;97703.34;5034785;28;19960;-30
2022/11/12 12:09:45;;;;;;;;;;;;;;;19.95;37.86;97704.56;5042334;27;19915;-29
2022/11/12 12:12:16;;;;;;;;;;;;;;;19.98;37.77;97698.91;5137288;27;19994;-31
2022/11/12 12:15:06;;;;;;;;;;;;;;;19.92;38.11;97694.47;5137885;27;19915;-31
2022/11/12 12:17:47;;;;;;;;;;;;;;;19.93;37.96;97690.47;5137643;27;19908;-31
2022/11/12 12:20:16;;;;;;;;;;;;;;;20.00;37.91;97679.19;5137791;27;19907;-32
2022/11/12 12:23:03;;;;;;;;;;;;;;;20.00;37.83;97679.94;5137745;27;19915;-32
2022/11/12 12:25:34;;;;;;;;;;;;;;;20.09;37.74;97676.44;5137691;27;19912;-31
2022/11/12 12:28:05;;;;;;;;;;;;;;;20.04;37.92;97679.78;5137457;27;20276;-31
2022/11/12 12:30:33;;;;;;;;;;;;;;;19.97;37.97;97671.84;5137408;27;19907;-31
2022/11/12 12:33:01;;;;;;;;;;;;;;;19.99;38.09;97661.13;5137376;27;19911;-31
2022/11/12 12:35:26;;;;;;;;;;;;;;;19.93;38.13;97655.47;5119186;27;20240;-32
2022/11/12 12:37:58;;;;;;;;;;;;;;;20.00;37.82;97663.44;5137138;27;19994;-31
2022/11/12 12:40:42;;;;;;;;;;;;;;;20.00;37.89;97663.44;5137114;27;19907;-32
2022/11/12 12:43:22;;;;;;;;;;;;;;;20.07;37.77;97656.84;5137144;27;19993;-32
2022/11/12 12:45:47;;;;;;;;;;;;;;;19.98;37.94;97654.84;5137030;27;19914;-31
2022/11/12 12:48:21;;;;;;;;;;;;;;;19.92;37.86;97644.91;5137055;27;19936;-35
2022/11/12 12:50:47;;;;;;;;;;;;;;;19.90;37.99;97650.13;5137155;27;19908;-34
2022/11/12 12:53:15;;;;;;;;;;;;;;;19.98;37.89;97645.84;5141100;27;19911;-34
2022/11/12 12:55:42;;;;;;;;;;;;;;;20.03;37.77;97645.19;5137027;27;19916;-33
2022/11/12 12:58:27;;;;;;;;;;;;;;;20.05;37.85;97645.50;5136981;27;20285;-33
2022/11/12 13:01:01;;;;;;;;;;;;;;;20.00;38.00;97641.41;5136675;27;19976;-33
2022/11/12 13:03:41;;;;;;;;;;;;;;;19.95;37.95;97638.47;5136995;27;19907;-33
2022/11/12 13:06:12;;;;;;;;;;;;;;;19.99;38.10;97633.59;5137064;27;19914;-33
2022/11/12 13:08:38;;;;;;;;;;;;;;;19.94;38.09;97632.22;5137099;27;20323;-33
2022/11/12 13:11:03;;;;;;;;;;;;;;;19.99;37.82;97633.59;5136507;27;19907;-33
2022/11/12 13:13:30;;;;;;;;;;;;;;;20.05;37.61;97624.25;5136852;27;19915;-34
2022/11/12 13:15:57;;;;;;;;;;;;;;;20.05;37.70;97620.72;5136798;27;19912;-34